Accueil
METAR-TAF:

METAR-TAF

Aéroports :

Cherbourg, France

Aéroport de Cherbourg - Maupertus

latitude: 49-39N, longitude: 001-28W, altitude: 138 m

Observation

Le bulletin a été fait il y a 33 minutes, à 03:30 UTC
Vent 11 kt de est
Température 2°C
Humidité 69%
Pression 1020 hPa
Visibilité 10 km ou plus

METAR: LFRC 250330Z AUTO 09011KT 9999 NSC 02/M03 Q1020

Heure: 05:03 (04:03 UTC)

Prévision

Le bulletin a été fait il y a 14 heures et 3 minutes, à 14:00 UTC
Prévision valable du 24 à 15 UTC au 24 à 24 UTC
Vent 18 kt de est/nord-est avec des rafales jusqu'à 28 kt
Visibilité 10 km ou plus
pas de nuages en-dessous de 1500 mètres et pas de cumulonimbus.

TAF: LFRC 241400Z 2415/2424 07018G28KT CAVOK

Observations et prévisions météorologiques de plus de 4000 aéroports (messages METAR et TAF).

Les stations disponibles sont représentées par des disques jaunes et rouges sur la carte.

Passer la souris dessus pour voir le nom de la station.

Cliquer dessus pour voir les observations et prévisions météorologiques.

Pour changer de carte: cliquez sur les boutons verts avec une croix noire pour zoomer, sur le bouton vert avec un tiret pour effectuer un zoom arrière, ou sur les flèches vertes pour les cartes adjacentes.


METAR-TAF: